Time;durP1;ratioP1;P1;durP2;ratioP2;P2;SDS_P1;SDS_P2;PMS_P1;PMS_P2;Temp;Humidity;BMP_temperature;BMP_pressure;BME280_temperature;BME280_humidity;BME280_pressure;Samples;Min_cycle;Max_cycle;Signal;HPM_P1;HPM_P2
2023/03/06 00:00:07;;;;;;;4.80;1.50;;;;;;;;;;4982234;28;20470;-66
2023/03/06 00:02:37;;;;;;;2.83;1.03;;;;;;;;;;4980752;28;20458;-65
2023/03/06 00:05:04;;;;;;;6.87;2.00;;;;;;;;;;4981940;28;20479;-65
2023/03/06 00:07:30;;;;;;;6.13;1.77;;;;;;;;;;4965930;28;20520;-65
2023/03/06 00:10:15;;;;;;;4.30;1.33;;;;;;;;;;4981401;28;20451;-65
2023/03/06 00:12:42;;;;;;;4.97;1.60;;;;;;;;;;4980702;28;20459;-66
2023/03/06 00:15:09;;;;;;;5.67;1.60;;;;;;;;;;4982957;28;20478;-66
2023/03/06 00:17:35;;;;;;;2.43;1.60;;;;;;;;;;4968105;28;20982;-66
2023/03/06 00:20:03;;;;;;;3.60;1.63;;;;;;;;;;4982214;28;20463;-66
2023/03/06 00:22:47;;;;;;;3.20;1.50;;;;;;;;;;4981933;28;20450;-65
2023/03/06 00:25:17;;;;;;;4.00;1.67;;;;;;;;;;4984689;28;21227;-65
2023/03/06 00:28:01;;;;;;;5.20;1.33;;;;;;;;;;4983193;28;20465;-65
2023/03/06 00:30:28;;;;;;;3.53;1.67;;;;;;;;;;4986896;28;20482;-65
2023/03/06 00:33:12;;;;;;;2.87;1.37;;;;;;;;;;4966999;28;21085;-66
2023/03/06 00:35:39;;;;;;;3.70;1.50;;;;;;;;;;4983740;28;21029;-65
2023/03/06 00:38:06;;;;;;;4.20;1.60;;;;;;;;;;4952269;28;20451;-65
2023/03/06 00:40:33;;;;;;;3.57;1.33;;;;;;;;;;4984179;28;20482;-66
2023/03/06 00:42:59;;;;;;;3.50;1.27;;;;;;;;;;4968652;28;20458;-65
2023/03/06 00:45:43;;;;;;;4.43;1.63;;;;;;;;;;4969466;28;20485;-66
2023/03/06 00:48:10;;;;;;;3.30;1.60;;;;;;;;;;4986180;28;20498;-65
2023/03/06 00:50:37;;;;;;;7.17;1.43;;;;;;;;;;4959076;28;20480;-65
2023/03/06 00:53:03;;;;;;;5.13;1.13;;;;;;;;;;4960900;28;20467;-66
2023/03/06 00:55:32;;;;;;;2.17;1.00;;;;;;;;;;4964759;28;20460;-65
2023/03/06 00:57:59;;;;;;;5.33;2.00;;;;;;;;;;4963541;28;20468;-65
2023/03/06 01:00:26;;;;;;;6.77;1.60;;;;;;;;;;4949858;28;20553;-65
2023/03/06 01:02:55;;;;;;;4.50;1.37;;;;;;;;;;4966423;28;20463;-65
2023/03/06 01:05:40;;;;;;;5.17;1.30;;;;;;;;;;4966411;28;20455;-65
2023/03/06 01:08:07;;;;;;;3.73;1.27;;;;;;;;;;4984059;28;20529;-65
2023/03/06 01:10:38;;;;;;;4.73;1.40;;;;;;;;;;4983260;28;20455;-65
2023/03/06 01:13:05;;;;;;;2.77;1.20;;;;;;;;;;4983436;28;20466;-65
2023/03/06 01:15:31;;;;;;;3.83;1.30;;;;;;;;;;4984264;28;20743;-65
2023/03/06 01:18:16;;;;;;;4.03;1.40;;;;;;;;;;4982652;28;20478;-65
2023/03/06 01:20:42;;;;;;;8.30;1.83;;;;;;;;;;4958174;28;20459;-66
2023/03/06 01:23:27;;;;;;;4.77;1.60;;;;;;;;;;4974888;28;20455;-65
2023/03/06 01:25:54;;;;;;;6.37;1.07;;;;;;;;;;4970858;28;20463;-65
2023/03/06 01:28:20;;;;;;;5.17;1.60;;;;;;;;;;4981875;28;20467;-65
2023/03/06 01:30:47;;;;;;;4.17;1.30;;;;;;;;;;4970583;28;20933;-65
2023/03/06 01:33:16;;;;;;;2.73;1.10;;;;;;;;;;4971390;28;20857;-65
2023/03/06 01:35:43;;;;;;;3.50;1.40;;;;;;;;;;4968189;28;20541;-65
2023/03/06 01:38:11;;;;;;;2.50;1.20;;;;;;;;;;4983696;28;20512;-65
2023/03/06 01:40:37;;;;;;;4.30;1.30;;;;;;;;;;4967931;28;20479;-65
2023/03/06 02:18:20;;;;;;;4.60;1.20;;;;;;;;;;4949579;28;20850;-65
2023/03/06 02:20:49;;;;;;;0.77;0.33;;;;;;;;;;4967402;28;20486;-65
2023/03/06 02:23:28;;;;;;;3.77;0.80;;;;;;;;;;4956419;28;20500;-65
2023/03/06 02:26:13;;;;;;;3.07;1.10;;;;;;;;;;4982772;28;20466;-65
2023/03/06 02:28:39;;;;;;;3.70;1.27;;;;;;;;;;4949327;28;20939;-65
2023/03/06 02:31:06;;;;;;;6.33;1.37;;;;;;;;;;4965820;28;20975;-65
2023/03/06 02:33:33;;;;;;;2.30;1.00;;;;;;;;;;4984966;28;20462;-65
2023/03/06 02:36:00;;;;;;;5.13;1.50;;;;;;;;;;4966561;28;20506;-65
2023/03/06 02:38:28;;;;;;;4.17;1.27;;;;;;;;;;4970412;28;20463;-65
2023/03/06 02:40:56;;;;;;;5.40;1.70;;;;;;;;;;4946338;28;21037;-65
2023/03/06 02:43:27;;;;;;;3.33;1.50;;;;;;;;;;4964077;28;20894;-65
2023/03/06 02:45:55;;;;;;;3.60;1.37;;;;;;;;;;4950236;28;20463;-65
2023/03/06 02:48:21;;;;;;;2.27;1.30;;;;;;;;;;4956942;28;20482;-65
2023/03/06 02:50:48;;;;;;;2.10;1.30;;;;;;;;;;4963388;28;20464;-65
2023/03/06 02:53:15;;;;;;;3.23;1.17;;;;;;;;;;4968838;28;20467;-65
2023/03/06 02:55:42;;;;;;;5.07;1.23;;;;;;;;;;4999691;28;20455;-65
2023/03/06 02:58:08;;;;;;;3.93;1.30;;;;;;;;;;4981051;28;20459;-65
2023/03/06 03:00:36;;;;;;;4.13;1.50;;;;;;;;;;4971863;28;20538;-66
2023/03/06 03:03:07;;;;;;;2.33;1.43;;;;;;;;;;4964882;28;26431;-65
2023/03/06 03:05:33;;;;;;;2.93;0.97;;;;;;;;;;4981812;28;20459;-65
2023/03/06 03:08:09;;;;;;;3.00;1.13;;;;;;;;;;4964211;28;20462;-65
2023/03/06 03:10:36;;;;;;;6.43;1.30;;;;;;;;;;4984348;28;25020;-65
2023/03/06 03:13:02;;;;;;;3.03;1.10;;;;;;;;;;4981427;28;20471;-65
2023/03/06 03:15:30;;;;;;;3.47;1.03;;;;;;;;;;4949929;28;20468;-65
2023/03/06 03:17:57;;;;;;;4.03;0.93;;;;;;;;;;4981791;28;20466;-65
2023/03/06 03:20:41;;;;;;;2.83;0.97;;;;;;;;;;4957889;28;20653;-65
2023/03/06 03:23:08;;;;;;;6.73;1.40;;;;;;;;;;4977206;28;20455;-64
2023/03/06 03:25:34;;;;;;;3.67;1.20;;;;;;;;;;4980809;28;21304;-64
2023/03/06 03:28:02;;;;;;;3.00;1.30;;;;;;;;;;4961319;28;20465;-65
2023/03/06 03:30:29;;;;;;;2.73;1.30;;;;;;;;;;4980451;28;20498;-65
2023/03/06 03:32:55;;;;;;;1.90;1.17;;;;;;;;;;4950749;28;20473;-66
2023/03/06 03:35:23;;;;;;;2.40;1.20;;;;;;;;;;4956217;28;21344;-66
2023/03/06 03:37:51;;;;;;;6.10;1.30;;;;;;;;;;4976775;28;20455;-65
2023/03/06 03:40:37;;;;;;;5.53;1.40;;;;;;;;;;4955620;28;20456;-66
2023/03/06 03:43:03;;;;;;;3.07;1.10;;;;;;;;;;4944484;28;20451;-70
2023/03/06 03:45:31;;;;;;;2.57;0.87;;;;;;;;;;4930928;28;20527;-70
2023/03/06 03:48:22;;;;;;;1.93;1.13;;;;;;;;;;4956602;28;20458;-71
2023/03/06 03:50:50;;;;;;;4.07;1.40;;;;;;;;;;4962117;28;20477;-69
2023/03/06 03:53:19;;;;;;;3.57;1.17;;;;;;;;;;4918623;28;20542;-69
2023/03/06 03:55:47;;;;;;;3.07;1.03;;;;;;;;;;4967294;28;20467;-70
2023/03/06 03:58:16;;;;;;;1.80;1.03;;;;;;;;;;4943243;28;20591;-69
2023/03/06 04:00:43;;;;;;;5.90;1.20;;;;;;;;;;4962370;28;31287;-67
2023/03/06 04:03:13;;;;;;;3.13;1.20;;;;;;;;;;4944724;28;20541;-67
2023/03/06 04:05:57;;;;;;;3.13;1.00;;;;;;;;;;4963126;28;20524;-69
2023/03/06 04:08:24;;;;;;;2.77;0.90;;;;;;;;;;4980749;28;20458;-69
2023/03/06 04:10:51;;;;;;;2.73;1.40;;;;;;;;;;4959219;28;20561;-69
2023/03/06 04:13:19;;;;;;;4.07;0.90;;;;;;;;;;4982471;28;20520;-67
2023/03/06 04:15:48;;;;;;;1.07;0.50;;;;;;;;;;4979161;28;20463;-68
2023/03/06 04:18:17;;;;;;;3.63;1.47;;;;;;;;;;4931264;28;20467;-69
2023/03/06 04:20:44;;;;;;;4.73;1.50;;;;;;;;;;4959438;28;20448;-67
2023/03/06 04:23:12;;;;;;;5.83;2.27;;;;;;;;;;4930271;28;20472;-67
2023/03/06 04:25:56;;;;;;;5.13;2.27;;;;;;;;;;4939837;28;20448;-68
2023/03/06 04:28:23;;;;;;;8.93;3.03;;;;;;;;;;4932116;28;20472;-67
2023/03/06 04:30:50;;;;;;;6.60;2.20;;;;;;;;;;4933023;28;20468;-70
2023/03/06 04:33:18;;;;;;;4.13;1.70;;;;;;;;;;4941460;28;20532;-69
2023/03/06 04:35:45;;;;;;;7.73;2.83;;;;;;;;;;4943065;28;20457;-71
2023/03/06 04:38:18;;;;;;;7.63;2.60;;;;;;;;;;4937128;28;20463;-71
2023/03/06 04:40:45;;;;;;;3.53;1.73;;;;;;;;;;4915007;28;20807;-70
2023/03/06 04:43:11;;;;;;;2.57;0.87;;;;;;;;;;4926376;28;20449;-69
2023/03/06 04:45:56;;;;;;;4.03;1.70;;;;;;;;;;4933582;28;20440;-68
2023/03/06 04:48:23;;;;;;;8.57;2.27;;;;;;;;;;4945534;28;21077;-69
2023/03/06 04:51:08;;;;;;;6.20;1.90;;;;;;;;;;4945752;28;20448;-68
2023/03/06 04:53:35;;;;;;;6.73;1.80;;;;;;;;;;4945448;28;20527;-69
2023/03/06 04:56:19;;;;;;;6.33;2.67;;;;;;;;;;4941325;28;21022;-69
2023/03/06 04:58:46;;;;;;;7.00;2.20;;;;;;;;;;4945240;28;20864;-69
2023/03/06 05:01:30;;;;;;;4.77;1.80;;;;;;;;;;4929859;28;20584;-69
2023/03/06 05:03:56;;;;;;;5.33;1.77;;;;;;;;;;4946303;28;20523;-68
2023/03/06 05:06:23;;;;;;;3.37;1.67;;;;;;;;;;4945237;28;20455;-68
2023/03/06 05:08:50;;;;;;;8.10;2.90;;;;;;;;;;4935246;28;20457;-71
2023/03/06 05:11:16;;;;;;;7.97;2.73;;;;;;;;;;4943018;28;20460;-70
2023/03/06 05:13:43;;;;;;;7.67;2.03;;;;;;;;;;4945504;28;21014;-70
2023/03/06 05:16:09;;;;;;;4.03;2.00;;;;;;;;;;4936719;28;20536;-70
2023/03/06 05:18:36;;;;;;;6.23;2.57;;;;;;;;;;4946507;28;20499;-70
2023/03/06 05:21:21;;;;;;;6.60;2.23;;;;;;;;;;4929628;28;20472;-72
2023/03/06 05:23:47;;;;;;;7.33;2.60;;;;;;;;;;4950709;28;20455;-73
2023/03/06 05:26:15;;;;;;;7.10;2.60;;;;;;;;;;4978481;28;20467;-72
2023/03/06 05:28:41;;;;;;;6.40;2.67;;;;;;;;;;4978677;28;20462;-75
2023/03/06 05:31:08;;;;;;;4.80;2.57;;;;;;;;;;4961574;28;21595;-71
2023/03/06 05:33:35;;;;;;;3.00;1.63;;;;;;;;;;4982070;28;20471;-71
2023/03/06 05:36:01;;;;;;;5.27;1.90;;;;;;;;;;4980142;28;21245;-70
2023/03/06 05:38:28;;;;;;;4.70;2.20;;;;;;;;;;4981832;28;20466;-71
2023/03/06 05:40:55;;;;;;;5.43;2.47;;;;;;;;;;4983100;28;20462;-71
2023/03/06 05:43:21;;;;;;;7.37;2.23;;;;;;;;;;4984630;28;20463;-71
2023/03/06 05:45:49;;;;;;;15.40;5.33;;;;;;;;;;4965031;28;20451;-71
2023/03/06 05:48:16;;;;;;;11.03;4.70;;;;;;;;;;4982478;28;20483;-71
2023/03/06 05:50:42;;;;;;;7.37;3.23;;;;;;;;;;4984213;28;20470;-71
2023/03/06 05:53:09;;;;;;;9.70;2.97;;;;;;;;;;4981143;28;20459;-71
2023/03/06 05:55:35;;;;;;;19.27;4.90;;;;;;;;;;4984904;28;20462;-71
2023/03/06 05:58:02;;;;;;;6.13;2.90;;;;;;;;;;4983179;28;20930;-71
2023/03/06 06:00:29;;;;;;;4.97;2.07;;;;;;;;;;4953828;28;20481;-70
2023/03/06 06:02:58;;;;;;;8.90;3.10;;;;;;;;;;4983737;28;20531;-71
2023/03/06 06:05:25;;;;;;;4.40;2.63;;;;;;;;;;4966315;28;20544;-71
2023/03/06 06:07:51;;;;;;;6.10;2.40;;;;;;;;;;4969403;28;20475;-71
2023/03/06 06:10:36;;;;;;;6.60;2.30;;;;;;;;;;4974372;28;20459;-72
2023/03/06 06:13:03;;;;;;;4.63;1.63;;;;;;;;;;4974394;28;20455;-74
2023/03/06 06:15:30;;;;;;;9.27;2.13;;;;;;;;;;4963185;28;20462;-75
2023/03/06 06:17:57;;;;;;;6.33;2.53;;;;;;;;;;4957455;28;20546;-74
2023/03/06 06:20:24;;;;;;;6.83;2.50;;;;;;;;;;4926157;28;21153;-74
2023/03/06 06:22:50;;;;;;;6.67;2.30;;;;;;;;;;4945436;28;21011;-72
2023/03/06 06:25:17;;;;;;;3.23;1.53;;;;;;;;;;4954571;28;20927;-72
2023/03/06 06:27:44;;;;;;;5.37;2.50;;;;;;;;;;4959798;28;20466;-72
2023/03/06 06:30:11;;;;;;;8.50;3.00;;;;;;;;;;4968258;28;20489;-70
2023/03/06 06:32:38;;;;;;;6.27;3.17;;;;;;;;;;4961627;28;20482;-70
2023/03/06 06:35:05;;;;;;;2.30;0.80;;;;;;;;;;4982476;28;20493;-70
2023/03/06 06:37:32;;;;;;;3.70;1.60;;;;;;;;;;4975546;28;212450;-70
2023/03/06 06:39:58;;;;;;;9.23;3.93;;;;;;;;;;4984640;28;20873;-70
2023/03/06 06:42:25;;;;;;;10.33;3.80;;;;;;;;;;4982007;28;20524;-70
2023/03/06 06:45:09;;;;;;;7.47;3.23;;;;;;;;;;4984219;28;20881;-70
2023/03/06 06:47:40;;;;;;;9.00;3.27;;;;;;;;;;4982899;28;20451;-70
2023/03/06 06:50:24;;;;;;;11.97;4.90;;;;;;;;;;4983907;28;20451;-70
2023/03/06 06:52:50;;;;;;;6.13;2.70;;;;;;;;;;4982360;28;20528;-70
2023/03/06 06:55:35;;;;;;;8.20;3.60;;;;;;;;;;4982572;28;20792;-70
2023/03/06 06:58:01;;;;;;;10.77;3.97;;;;;;;;;;4943696;28;20932;-72
2023/03/06 07:00:28;;;;;;;6.50;2.47;;;;;;;;;;4965909;28;20447;-70
2023/03/06 07:02:55;;;;;;;5.90;2.80;;;;;;;;;;4972150;28;220172;-70
2023/03/06 07:05:21;;;;;;;7.93;2.90;;;;;;;;;;4977701;28;20469;-71
2023/03/06 07:08:05;;;;;;;9.63;2.57;;;;;;;;;;4951721;28;20481;-70
2023/03/06 07:10:32;;;;;;;6.33;2.67;;;;;;;;;;4977637;28;20467;-67
2023/03/06 07:13:16;;;;;;;3.93;1.77;;;;;;;;;;4966448;28;20462;-68
2023/03/06 07:15:43;;;;;;;3.90;1.90;;;;;;;;;;4950551;28;20467;-70
2023/03/06 07:18:10;;;;;;;11.77;3.37;;;;;;;;;;4979468;28;20470;-68
2023/03/06 07:20:36;;;;;;;10.43;2.97;;;;;;;;;;4971208;28;20534;-67
2023/03/06 07:23:03;;;;;;;5.77;2.43;;;;;;;;;;4962787;28;20271;-68
2023/03/06 07:25:30;;;;;;;8.07;2.80;;;;;;;;;;4980768;28;20467;-70
2023/03/06 07:27:56;;;;;;;6.60;2.40;;;;;;;;;;4963056;28;20454;-71
2023/03/06 07:30:23;;;;;;;9.93;2.73;;;;;;;;;;4965353;28;20467;-67
2023/03/06 07:32:53;;;;;;;9.57;2.80;;;;;;;;;;4954966;28;20459;-67
2023/03/06 07:35:20;;;;;;;7.47;3.00;;;;;;;;;;4981133;28;20459;-69
2023/03/06 07:37:47;;;;;;;8.53;3.30;;;;;;;;;;4966935;28;20496;-68
2023/03/06 07:40:31;;;;;;;9.53;3.40;;;;;;;;;;4983508;28;21036;-67
2023/03/06 07:42:58;;;;;;;9.53;2.90;;;;;;;;;;4968113;28;20506;-69
2023/03/06 07:45:54;;;;;;;9.53;4.07;;;;;;;;;;4976516;28;20822;-68
2023/03/06 07:48:20;;;;;;;11.37;3.70;;;;;;;;;;4965735;28;20474;-67
2023/03/06 07:50:54;;;;;;;8.33;3.57;;;;;;;;;;4983657;28;20494;-69
2023/03/06 07:53:23;;;;;;;10.67;3.10;;;;;;;;;;4981391;28;20713;-70
2023/03/06 07:55:50;;;;;;;7.47;2.90;;;;;;;;;;4969355;28;20232;-68
2023/03/06 07:58:17;;;;;;;6.23;2.73;;;;;;;;;;4982771;28;20223;-67
2023/03/06 08:00:43;;;;;;;7.53;2.60;;;;;;;;;;4984455;28;20235;-68
2023/03/06 08:03:10;;;;;;;7.73;2.30;;;;;;;;;;4982239;28;20911;-68
2023/03/06 08:05:37;;;;;;;5.13;2.50;;;;;;;;;;4962712;28;20619;-68
2023/03/06 08:08:04;;;;;;;5.43;2.23;;;;;;;;;;4976681;28;20224;-69
2023/03/06 08:10:30;;;;;;;7.43;2.50;;;;;;;;;;4967560;28;20524;-70
2023/03/06 08:12:57;;;;;;;8.40;2.50;;;;;;;;;;4980249;28;20477;-67
2023/03/06 08:15:24;;;;;;;6.43;2.63;;;;;;;;;;4983389;28;20462;-69
2023/03/06 08:17:51;;;;;;;7.50;3.00;;;;;;;;;;4981582;28;20531;-70
2023/03/06 08:20:17;;;;;;;5.67;2.77;;;;;;;;;;4983814;28;20244;-68
2023/03/06 08:22:44;;;;;;;5.87;2.70;;;;;;;;;;4951940;28;20239;-70
2023/03/06 08:25:28;;;;;;;5.03;1.70;;;;;;;;;;4974532;28;219144;-70
2023/03/06 08:27:55;;;;;;;7.03;2.30;;;;;;;;;;4972882;28;20232;-70
2023/03/06 08:30:41;;;;;;;5.67;2.47;;;;;;;;;;4970306;28;20231;-69
2023/03/06 08:33:08;;;;;;;5.90;2.20;;;;;;;;;;4979577;28;20242;-70
2023/03/06 08:35:35;;;;;;;5.30;2.30;;;;;;;;;;4967304;28;20235;-72
2023/03/06 08:38:01;;;;;;;6.50;2.13;;;;;;;;;;4978213;28;20334;-70
2023/03/06 08:40:29;;;;;;;3.53;1.50;;;;;;;;;;4966639;28;20236;-68
2023/03/06 08:42:55;;;;;;;5.23;2.47;;;;;;;;;;4978859;28;20236;-67
2023/03/06 08:45:22;;;;;;;6.60;2.60;;;;;;;;;;4975357;28;20241;-62
2023/03/06 08:47:49;;;;;;;6.30;2.40;;;;;;;;;;4963954;28;20230;-63
2023/03/06 08:50:17;;;;;;;6.50;2.30;;;;;;;;;;4978593;28;20231;-63
2023/03/06 08:52:44;;;;;;;6.07;2.30;;;;;;;;;;4980780;28;20309;-64
2023/03/06 08:55:11;;;;;;;6.03;2.20;;;;;;;;;;4982080;28;20590;-64
2023/03/06 08:57:40;;;;;;;4.83;2.13;;;;;;;;;;4976752;28;20993;-64
2023/03/06 09:00:07;;;;;;;6.13;2.07;;;;;;;;;;4972071;28;20235;-63
2023/03/06 09:02:34;;;;;;;7.67;2.93;;;;;;;;;;4979777;28;20239;-65
2023/03/06 09:05:03;;;;;;;6.27;2.77;;;;;;;;;;4981745;28;20243;-63
2023/03/06 09:07:30;;;;;;;5.10;2.63;;;;;;;;;;4978035;28;20258;-64
2023/03/06 09:09:57;;;;;;;2.77;1.47;;;;;;;;;;4979549;28;20236;-62
2023/03/06 09:12:41;;;;;;;5.60;1.97;;;;;;;;;;4975824;28;20550;-63
2023/03/06 09:15:16;;;;;;;1.73;0.80;;;;;;;;;;4961426;28;20237;-64
2023/03/06 09:17:43;;;;;;;4.43;1.57;;;;;;;;;;4979686;28;20854;-65
2023/03/06 09:20:10;;;;;;;2.50;1.40;;;;;;;;;;4978729;28;20228;-63
2023/03/06 09:22:37;;;;;;;4.67;1.90;;;;;;;;;;4909893;28;1558058;-63
2023/03/06 09:25:23;;;;;;;7.50;2.37;;;;;;;;;;4977608;28;20307;-64
2023/03/06 09:27:50;;;;;;;4.10;1.50;;;;;;;;;;4963888;28;20243;-62
2023/03/06 09:30:36;;;;;;;3.87;1.70;;;;;;;;;;4948770;28;20228;-64
2023/03/06 09:33:03;;;;;;;3.73;1.70;;;;;;;;;;4961899;28;20560;-63
2023/03/06 09:35:29;;;;;;;5.73;1.93;;;;;;;;;;4979872;28;20232;-63
2023/03/06 09:37:56;;;;;;;5.70;1.40;;;;;;;;;;4979752;28;20236;-63
2023/03/06 09:40:32;;;;;;;3.27;1.50;;;;;;;;;;4980898;28;20314;-65
2023/03/06 09:42:59;;;;;;;5.13;1.87;;;;;;;;;;4980264;28;20473;-62
2023/03/06 09:45:26;;;;;;;1.93;1.10;;;;;;;;;;4967464;28;20241;-63
2023/03/06 09:48:00;;;;;;;3.87;1.20;;;;;;;;;;4961307;28;20240;-63
2023/03/06 09:50:37;;;;;;;4.80;1.00;;;;;;;;;;4957201;28;20232;-63
2023/03/06 09:53:16;;;;;;;2.67;1.13;;;;;;;;;;4961334;28;20518;-63
2023/03/06 09:55:45;;;;;;;7.60;1.60;;;;;;;;;;4961794;28;20467;-63
2023/03/06 09:58:11;;;;;;;4.27;1.53;;;;;;;;;;4963072;28;20823;-63
2023/03/06 10:00:45;;;;;;;4.20;1.60;;;;;;;;;;4965048;28;21215;-63
2023/03/06 10:03:21;;;;;;;2.83;1.13;;;;;;;;;;4944024;28;20447;-63
2023/03/06 10:05:52;;;;;;;2.70;0.70;;;;;;;;;;4945813;28;20463;-65
2023/03/06 10:08:54;;;;;;;7.57;1.20;;;;;;;;;;4945833;28;20950;-64
2023/03/06 10:11:22;;;;;;;5.40;1.80;;;;;;;;;;4963427;28;20505;-63
2023/03/06 10:13:49;;;;;;;6.10;1.73;;;;;;;;;;4977313;28;20961;-64
2023/03/06 10:16:16;;;;;;;2.53;1.40;;;;;;;;;;4964384;28;20463;-63
2023/03/06 10:18:43;;;;;;;3.00;1.60;;;;;;;;;;4966192;28;20244;-64
2023/03/06 10:21:16;;;;;;;4.30;1.60;;;;;;;;;;4963584;28;20242;-66
2023/03/06 10:23:52;;;;;;;2.87;1.37;;;;;;;;;;4976817;28;20220;-64
2023/03/06 10:26:31;;;;;;;12.43;2.97;;;;;;;;;;4978247;28;20227;-65
2023/03/06 10:29:10;;;;;;;6.50;1.70;;;;;;;;;;4962113;28;20280;-67
2023/03/06 10:31:37;;;;;;;2.40;1.40;;;;;;;;;;4974976;28;20238;-64
2023/03/06 10:34:15;;;;;;;2.40;1.00;;;;;;;;;;4959884;28;20244;-64
2023/03/06 10:36:42;;;;;;;2.77;1.23;;;;;;;;;;4961521;28;20235;-63
2023/03/06 10:39:14;;;;;;;3.03;1.40;;;;;;;;;;4965752;28;20228;-66
2023/03/06 10:41:40;;;;;;;5.63;1.17;;;;;;;;;;4965889;28;22027;-66
2023/03/06 10:44:25;;;;;;;4.73;1.90;;;;;;;;;;4977508;28;20442;-63
2023/03/06 10:46:52;;;;;;;5.67;1.70;;;;;;;;;;4979796;28;21260;-63
2023/03/06 10:49:32;;;;;;;3.83;1.23;;;;;;;;;;4978471;28;20246;-63
2023/03/06 10:52:00;;;;;;;2.80;0.90;;;;;;;;;;4975022;28;20454;-64
2023/03/06 10:54:31;;;;;;;2.87;1.40;;;;;;;;;;4977331;28;20282;-64
2023/03/06 10:56:58;;;;;;;8.03;2.10;;;;;;;;;;4974588;28;20302;-66
2023/03/06 10:59:27;;;;;;;4.93;1.50;;;;;;;;;;4978448;28;20456;-65
2023/03/06 11:01:57;;;;;;;5.20;1.50;;;;;;;;;;4979073;28;20236;-65
2023/03/06 11:04:33;;;;;;;4.17;1.60;;;;;;;;;;4978639;28;20459;-65
2023/03/06 11:07:06;;;;;;;3.07;1.33;;;;;;;;;;4960879;28;20545;-65
2023/03/06 11:09:33;;;;;;;3.63;1.20;;;;;;;;;;4976940;28;20459;-64
2023/03/06 11:12:21;;;;;;;1.37;0.67;;;;;;;;;;4961526;28;20578;-63
2023/03/06 11:15:08;;;;;;;2.83;0.90;;;;;;;;;;4977787;28;20497;-64
2023/03/06 11:17:52;;;;;;;2.37;1.23;;;;;;;;;;4974705;28;20469;-64
2023/03/06 11:20:27;;;;;;;4.07;1.30;;;;;;;;;;4973331;28;20227;-64
2023/03/06 11:23:09;;;;;;;5.37;1.30;;;;;;;;;;4974646;28;20447;-62
2023/03/06 11:25:39;;;;;;;2.57;1.20;;;;;;;;;;4978256;28;20462;-65
2023/03/06 11:28:06;;;;;;;4.93;1.70;;;;;;;;;;4975946;28;20459;-64
2023/03/06 11:30:41;;;;;;;4.57;2.07;;;;;;;;;;4978558;28;20466;-65
2023/03/06 11:33:28;;;;;;;2.93;1.00;;;;;;;;;;4949102;28;20235;-65
2023/03/06 11:35:56;;;;;;;4.33;1.40;;;;;;;;;;4976885;28;20438;-66
2023/03/06 11:38:31;;;;;;;5.10;1.60;;;;;;;;;;4976257;28;20483;-65
2023/03/06 11:40:58;;;;;;;5.23;1.17;;;;;;;;;;4960469;28;21191;-66
2023/03/06 11:43:29;;;;;;;2.83;1.20;;;;;;;;;;4958212;28;20495;-67
2023/03/06 11:45:56;;;;;;;2.33;1.20;;;;;;;;;;4962838;28;20539;-65
2023/03/06 11:48:41;;;;;;;2.53;1.17;;;;;;;;;;4977723;28;20491;-64
2023/03/06 11:51:18;;;;;;;6.33;1.93;;;;;;;;;;4978657;28;20462;-62
2023/03/06 11:53:44;;;;;;;5.43;1.30;;;;;;;;;;4957585;28;20990;-63
2023/03/06 11:56:13;;;;;;;3.03;1.23;;;;;;;;;;4953851;28;20519;-64
2023/03/06 11:58:46;;;;;;;3.10;1.13;;;;;;;;;;4957070;28;20462;-64
2023/03/06 12:01:31;;;;;;;3.67;1.03;;;;;;;;;;4977177;28;20232;-65
2023/03/06 12:04:16;;;;;;;2.00;0.90;;;;;;;;;;4979402;28;20865;-65
2023/03/06 12:06:58;;;;;;;2.90;1.30;;;;;;;;;;4976840;28;20459;-63
2023/03/06 12:09:35;;;;;;;5.13;1.67;;;;;;;;;;4967832;28;20467;-63
2023/03/06 12:12:08;;;;;;;5.30;1.70;;;;;;;;;;4977870;28;20493;-65
2023/03/06 12:14:58;;;;;;;3.60;1.17;;;;;;;;;;4971159;28;20453;-63
2023/03/06 12:17:25;;;;;;;5.27;1.60;;;;;;;;;;4932187;28;20452;-64
2023/03/06 12:20:11;;;;;;;7.30;1.90;;;;;;;;;;4963894;28;20469;-63
2023/03/06 12:23:04;;;;;;;0.97;0.83;;;;;;;;;;4959708;28;20268;-65
2023/03/06 12:25:43;;;;;;;5.37;1.43;;;;;;;;;;4925425;28;21670;-63
2023/03/06 12:28:33;;;;;;;6.10;1.10;;;;;;;;;;4942774;28;20221;-66
2023/03/06 12:31:19;;;;;;;1.53;1.00;;;;;;;;;;4960703;28;20466;-67
2023/03/06 12:33:51;;;;;;;3.63;1.20;;;;;;;;;;4953331;28;20459;-69
2023/03/06 12:36:21;;;;;;;1.50;0.53;;;;;;;;;;4974757;28;20887;-69
2023/03/06 12:38:53;;;;;;;6.13;1.10;;;;;;;;;;4962711;28;20474;-70
2023/03/06 12:41:20;;;;;;;4.37;1.10;;;;;;;;;;4960295;28;20248;-69
2023/03/06 12:43:49;;;;;;;3.40;0.93;;;;;;;;;;4963993;28;20482;-67
2023/03/06 12:46:18;;;;;;;2.83;1.30;;;;;;;;;;4946430;28;20467;-67
2023/03/06 12:48:47;;;;;;;3.13;1.23;;;;;;;;;;4963834;28;20468;-68
2023/03/06 12:51:15;;;;;;;2.50;1.13;;;;;;;;;;4961208;28;20466;-69
2023/03/06 12:53:42;;;;;;;5.30;1.53;;;;;;;;;;4961500;28;20475;-67
2023/03/06 12:56:08;;;;;;;5.23;1.60;;;;;;;;;;4976429;28;20879;-68
2023/03/06 12:58:43;;;;;;;2.93;1.40;;;;;;;;;;4963886;28;20471;-68
2023/03/06 13:01:29;;;;;;;4.43;1.57;;;;;;;;;;4943185;28;21096;-68
2023/03/06 13:04:15;;;;;;;7.00;2.57;;;;;;;;;;4934387;28;20940;-69
2023/03/06 13:06:57;;;;;;;5.63;2.30;;;;;;;;;;4960130;28;20775;-70
2023/03/06 13:09:35;;;;;;;6.70;1.90;;;;;;;;;;4962818;28;20239;-69
2023/03/06 13:12:07;;;;;;;7.67;3.50;;;;;;;;;;4962502;28;20228;-69
2023/03/06 13:14:36;;;;;;;5.10;2.47;;;;;;;;;;4944406;28;20243;-69
2023/03/06 13:17:22;;;;;;;4.10;1.60;;;;;;;;;;4943515;28;20640;-68
2023/03/06 13:20:08;;;;;;;3.67;1.20;;;;;;;;;;4930383;28;20239;-68
2023/03/06 13:22:35;;;;;;;5.30;1.80;;;;;;;;;;4957860;28;20255;-67
2023/03/06 13:25:17;;;;;;;9.67;3.50;;;;;;;;;;4961183;28;20848;-68
2023/03/06 13:27:43;;;;;;;4.77;1.60;;;;;;;;;;4956852;28;20388;-66
2023/03/06 13:30:20;;;;;;;3.97;1.90;;;;;;;;;;4954188;28;20633;-67
2023/03/06 13:32:48;;;;;;;4.83;2.07;;;;;;;;;;4945111;28;20259;-66
2023/03/06 13:35:33;;;;;;;3.60;1.60;;;;;;;;;;4962668;28;20317;-66
2023/03/06 13:38:00;;;;;;;6.93;1.40;;;;;;;;;;4981527;28;20224;-65
2023/03/06 13:40:35;;;;;;;3.77;1.53;;;;;;;;;;4962369;28;20297;-64
2023/03/06 13:43:07;;;;;;;6.70;1.90;;;;;;;;;;4965135;28;20262;-67
2023/03/06 13:45:43;;;;;;;3.17;1.60;;;;;;;;;;4966310;28;20474;-68
2023/03/06 13:48:21;;;;;;;13.67;3.00;;;;;;;;;;4980878;28;20229;-65
2023/03/06 13:51:14;;;;;;;4.67;1.80;;;;;;;;;;4945134;28;20451;-65
2023/03/06 13:53:52;;;;;;;4.87;1.60;;;;;;;;;;4962453;28;21031;-66
2023/03/06 13:56:37;;;;;;;3.00;1.50;;;;;;;;;;4962274;28;20467;-65
2023/03/06 13:59:16;;;;;;;4.63;1.53;;;;;;;;;;4942212;28;20468;-66
2023/03/06 14:01:46;;;;;;;4.93;1.47;;;;;;;;;;4953911;28;20471;-65
2023/03/06 14:04:31;;;;;;;4.83;1.80;;;;;;;;;;4944881;28;20468;-66
2023/03/06 14:07:10;;;;;;;4.73;1.60;;;;;;;;;;4966063;28;20457;-66
2023/03/06 14:09:40;;;;;;;3.27;1.67;;;;;;;;;;4960342;28;21032;-66
2023/03/06 14:12:07;;;;;;;6.87;2.10;;;;;;;;;;4961809;28;20554;-66
2023/03/06 14:14:38;;;;;;;7.83;2.83;;;;;;;;;;4977043;28;20455;-66
2023/03/06 14:17:05;;;;;;;5.43;1.70;;;;;;;;;;4978627;28;20965;-66
2023/03/06 14:19:35;;;;;;;1.87;1.10;;;;;;;;;;4970803;28;20315;-66
2023/03/06 14:22:02;;;;;;;4.03;1.60;;;;;;;;;;4974014;28;20464;-66
2023/03/06 14:24:33;;;;;;;3.73;1.80;;;;;;;;;;4977215;28;20463;-65
2023/03/06 14:27:00;;;;;;;6.03;2.47;;;;;;;;;;4962847;28;23960;-66
2023/03/06 14:29:27;;;;;;;7.87;2.97;;;;;;;;;;4978461;28;20258;-67
2023/03/06 14:31:55;;;;;;;4.10;2.30;;;;;;;;;;4979792;28;20529;-67
2023/03/06 14:34:28;;;;;;;5.83;2.07;;;;;;;;;;4941654;28;20554;-67
2023/03/06 14:36:59;;;;;;;5.23;1.67;;;;;;;;;;4970318;28;20487;-67
2023/03/06 14:39:34;;;;;;;3.10;1.40;;;;;;;;;;4976776;28;20822;-66
2023/03/06 14:42:04;;;;;;;3.97;1.43;;;;;;;;;;4962908;28;20313;-66
2023/03/06 14:44:31;;;;;;;2.97;1.27;;;;;;;;;;4961246;28;20985;-66
2023/03/06 14:47:11;;;;;;;2.97;1.40;;;;;;;;;;4979894;28;20474;-66
2023/03/06 14:50:14;;;;;;;4.07;1.70;;;;;;;;;;4980900;28;20505;-68
2023/03/06 14:52:41;;;;;;;3.70;1.53;;;;;;;;;;4983493;28;21041;-68
2023/03/06 14:55:13;;;;;;;4.47;1.97;;;;;;;;;;4963076;28;21091;-68
2023/03/06 14:57:40;;;;;;;4.53;1.70;;;;;;;;;;4964151;28;20811;-68
2023/03/06 15:00:28;;;;;;;4.33;2.10;;;;;;;;;;4981978;28;20997;-68
2023/03/06 15:02:56;;;;;;;5.00;1.87;;;;;;;;;;4980932;28;20467;-68
2023/03/06 15:05:24;;;;;;;23.57;7.83;;;;;;;;;;4982097;28;20469;-67
2023/03/06 15:07:51;;;;;;;5.50;2.27;;;;;;;;;;4983107;28;20458;-68
2023/03/06 15:10:19;;;;;;;3.93;1.70;;;;;;;;;;4971314;28;20467;-68
2023/03/06 15:12:46;;;;;;;3.97;1.50;;;;;;;;;;4981878;28;24537;-68
2023/03/06 15:15:12;;;;;;;4.33;1.40;;;;;;;;;;4981208;28;20311;-68
2023/03/06 15:17:42;;;;;;;2.43;1.10;;;;;;;;;;4983801;28;20459;-68
2023/03/06 15:20:28;;;;;;;2.90;1.33;;;;;;;;;;4980963;28;20463;-68
2023/03/06 15:22:55;;;;;;;5.80;1.80;;;;;;;;;;4960335;28;20990;-68
2023/03/06 15:25:30;;;;;;;2.50;1.40;;;;;;;;;;4980267;28;20466;-68
2023/03/06 15:28:19;;;;;;;4.17;2.10;;;;;;;;;;4975542;28;20454;-68
2023/03/06 15:31:20;;;;;;;4.17;2.07;;;;;;;;;;4979820;28;21194;-68
2023/03/06 15:34:04;;;;;;;4.70;2.10;;;;;;;;;;4928289;28;20275;-68
2023/03/06 15:36:32;;;;;;;6.47;2.10;;;;;;;;;;4963242;28;20462;-68
2023/03/06 15:38:59;;;;;;;6.67;2.60;;;;;;;;;;4975691;28;20313;-68
2023/03/06 15:41:26;;;;;;;7.23;1.80;;;;;;;;;;4983662;28;20471;-68
2023/03/06 15:43:53;;;;;;;7.40;2.03;;;;;;;;;;4976433;28;20314;-68